createdAt,value
2018-04-07T00:00:20.792Z,51.67
2018-04-07T00:00:42.853Z,51.70
2018-04-07T00:01:04.926Z,51.66
2018-04-07T00:01:26.986Z,51.68
2018-04-07T00:01:49.043Z,51.71
2018-04-07T00:02:11.104Z,51.69
2018-04-07T00:02:33.163Z,51.68
2018-04-07T00:02:56.000Z,51.72
2018-04-07T00:03:18.853Z,51.67
2018-04-07T00:03:41.040Z,51.69
2018-04-07T00:04:03.096Z,51.70
2018-04-07T00:04:25.223Z,51.70
2018-04-07T00:04:48.028Z,51.69
2018-04-07T00:05:10.850Z,51.71
2018-04-07T00:05:32.909Z,51.70
2018-04-07T00:05:54.976Z,51.68
2018-04-07T00:06:17.056Z,51.70
2018-04-07T00:06:39.111Z,51.68
2018-04-07T00:07:01.205Z,51.66
2018-04-07T00:07:23.410Z,51.67
2018-04-07T00:07:45.465Z,51.67
2018-04-07T00:08:07.539Z,51.68
2018-04-07T00:08:29.638Z,51.66
2018-04-07T00:08:51.680Z,51.71
2018-04-07T00:09:13.730Z,51.72
2018-04-07T00:09:35.800Z,51.69
2018-04-07T00:09:57.874Z,51.72
2018-04-07T00:10:19.939Z,51.73
2018-04-07T00:10:42.002Z,51.69
2018-04-07T00:11:04.082Z,51.70
2018-04-07T00:11:26.147Z,51.68
2018-04-07T00:11:48.448Z,51.61
2018-04-07T00:12:10.506Z,51.60
2018-04-07T00:12:32.599Z,51.66
2018-04-07T00:12:54.656Z,51.65
2018-04-07T00:13:16.716Z,51.70
2018-04-07T00:13:38.769Z,51.68
2018-04-07T00:14:01.651Z,51.71
2018-04-07T00:14:24.457Z,51.74
2018-04-07T00:14:46.521Z,51.69
2018-04-07T00:15:09.339Z,51.68
2018-04-07T00:15:31.409Z,51.66
2018-04-07T00:15:54.236Z,51.64
2018-04-07T00:16:16.310Z,51.70
2018-04-07T00:16:38.373Z,51.71
2018-04-07T00:17:00.453Z,51.70
2018-04-07T00:17:22.558Z,51.71
2018-04-07T00:17:44.781Z,51.65
2018-04-07T00:18:06.850Z,51.68
2018-04-07T00:18:29.764Z,51.67
2018-04-07T00:18:51.892Z,51.67
2018-04-07T00:19:13.970Z,51.66
2018-04-07T00:19:36.030Z,51.68
2018-04-07T00:19:58.094Z,51.73
2018-04-07T00:20:20.161Z,51.65
2018-04-07T00:20:42.245Z,51.65
2018-04-07T00:21:04.296Z,51.69
2018-04-07T00:21:26.361Z,51.70
2018-04-07T00:21:48.450Z,51.67
2018-04-07T00:22:11.327Z,51.70
2018-04-07T00:22:33.722Z,51.69
2018-04-07T00:22:55.813Z,51.72
2018-04-07T00:23:17.995Z,51.71
2018-04-07T00:23:40.061Z,51.72
2018-04-07T00:24:02.967Z,51.74
2018-04-07T00:24:25.060Z,51.69
2018-04-07T00:24:47.128Z,51.68
2018-04-07T00:25:09.181Z,51.70
2018-04-07T00:25:31.249Z,51.72
2018-04-07T00:25:53.399Z,51.66
2018-04-07T00:26:16.212Z,51.67
2018-04-07T00:26:38.265Z,51.65
2018-04-07T00:27:00.326Z,51.66
2018-04-07T00:27:22.385Z,51.69
2018-04-07T00:27:45.229Z,51.71
2018-04-07T00:28:07.294Z,51.69
2018-04-07T00:28:29.427Z,51.69
2018-04-07T00:28:51.504Z,51.70
2018-04-07T00:29:13.591Z,51.73
2018-04-07T00:29:36.424Z,51.75
2018-04-07T00:29:59.235Z,51.75
2018-04-07T00:30:21.283Z,51.73
2018-04-07T00:30:44.126Z,51.71
2018-04-07T00:31:06.186Z,51.69
2018-04-07T00:31:28.261Z,51.69
2018-04-07T00:31:50.327Z,51.69
2018-04-07T00:32:12.469Z,51.69
2018-04-07T00:32:34.535Z,51.69
2018-04-07T00:32:56.598Z,51.71
2018-04-07T00:33:19.425Z,51.70
2018-04-07T00:33:41.559Z,51.70
2018-04-07T00:34:04.388Z,51.70
2018-04-07T00:34:26.490Z,51.69
2018-04-07T00:34:48.566Z,51.69
2018-04-07T00:35:10.621Z,51.68
2018-04-07T00:35:32.682Z,51.70
2018-04-07T00:35:55.472Z,51.71
2018-04-07T00:36:17.566Z,51.68
2018-04-07T00:36:39.622Z,51.71
2018-04-07T00:37:01.687Z,51.68
2018-04-07T00:37:23.760Z,51.67
2018-04-07T00:37:45.812Z,51.68
2018-04-07T00:38:07.870Z,51.68
2018-04-07T00:38:29.925Z,51.68
2018-04-07T00:38:52.750Z,51.72
2018-04-07T00:39:14.801Z,51.71
2018-04-07T00:39:36.896Z,51.74
2018-04-07T00:39:59.718Z,51.74
2018-04-07T00:40:21.768Z,51.74
2018-04-07T00:40:43.854Z,51.71
2018-04-07T00:41:05.910Z,51.72
2018-04-07T00:41:27.964Z,51.70
2018-04-07T00:41:50.037Z,51.69
2018-04-07T00:42:12.109Z,51.67
2018-04-07T00:42:34.173Z,51.67
2018-04-07T00:42:56.237Z,51.70
2018-04-07T00:43:18.304Z,51.68
2018-04-07T00:43:40.353Z,51.74
2018-04-07T00:44:02.402Z,51.68
2018-04-07T00:44:24.469Z,51.69
2018-04-07T00:44:46.561Z,51.75
2018-04-07T00:45:09.353Z,51.73
2018-04-07T00:45:31.409Z,51.72
2018-04-07T00:45:54.242Z,51.71
2018-04-07T00:46:17.081Z,51.75
2018-04-07T00:46:39.912Z,51.77
2018-04-07T00:47:02.801Z,51.73
2018-04-07T00:47:24.860Z,51.72
2018-04-07T00:47:47.024Z,51.72
2018-04-07T00:48:09.077Z,51.69
2018-04-07T00:48:31.129Z,51.70
2018-04-07T00:48:53.975Z,51.70
2018-04-07T00:49:16.046Z,51.70
2018-04-07T00:49:38.168Z,51.72
2018-04-07T00:50:00.228Z,51.69
2018-04-07T00:50:22.291Z,51.71
2018-04-07T00:50:44.352Z,51.72
2018-04-07T00:51:07.189Z,51.71
2018-04-07T00:51:30.013Z,51.75
2018-04-07T00:51:52.918Z,51.70
2018-04-07T00:52:14.972Z,51.71
2018-04-07T00:52:37.788Z,51.73
2018-04-07T00:52:59.852Z,51.72
2018-04-07T00:53:21.918Z,51.73
2018-04-07T00:53:43.982Z,51.72
2018-04-07T00:54:06.062Z,51.71
2018-04-07T00:54:28.117Z,51.69
2018-04-07T00:54:50.176Z,51.69
2018-04-07T00:55:12.247Z,51.67
2018-04-07T00:55:34.305Z,51.69
2018-04-07T00:55:56.368Z,51.70
2018-04-07T00:56:19.235Z,51.71
2018-04-07T00:56:41.297Z,51.69
2018-04-07T00:57:03.354Z,51.68
2018-04-07T00:57:25.423Z,51.72
2018-04-07T00:57:47.471Z,51.72
2018-04-07T00:58:10.303Z,51.70
2018-04-07T00:58:33.140Z,51.72
2018-04-07T00:58:55.962Z,51.70
2018-04-07T01:43:04.501Z,51.78
2018-04-07T01:43:26.566Z,51.74
2018-04-07T01:43:48.627Z,51.75
2018-04-07T01:44:10.701Z,51.74
2018-04-07T01:44:32.833Z,51.74
2018-04-07T01:44:55.664Z,51.74
2018-04-07T01:45:17.729Z,51.76
2018-04-07T01:45:39.781Z,51.75
2018-04-07T01:46:01.832Z,51.75
2018-04-07T01:46:24.650Z,51.72
2018-04-07T01:46:46.707Z,51.74
2018-04-07T01:47:08.788Z,51.75
2018-04-07T01:47:31.613Z,51.74
2018-04-07T01:47:53.679Z,51.72
2018-04-07T01:48:15.736Z,51.69
2018-04-07T01:48:37.816Z,51.71
2018-04-07T01:48:59.865Z,51.73
2018-04-07T01:49:21.935Z,51.72
2018-04-07T01:49:44.012Z,51.73
2018-04-07T01:50:06.064Z,51.72
2018-04-07T01:50:28.128Z,51.72
2018-04-07T01:50:50.198Z,51.72
2018-04-07T01:51:12.257Z,51.71
2018-04-07T01:51:34.329Z,51.71
2018-04-07T01:51:57.153Z,51.72
2018-04-07T01:52:19.971Z,51.70
2018-04-07T01:52:42.015Z,51.70
2018-04-07T01:53:04.862Z,51.70
2018-04-07T01:53:26.917Z,51.70
2018-04-07T01:53:48.972Z,51.70
2018-04-07T01:54:11.787Z,51.73
2018-04-07T01:54:33.857Z,51.72
2018-04-07T01:54:55.952Z,51.71
2018-04-07T01:55:18.778Z,51.72
2018-04-07T01:55:42.614Z,51.70
2018-04-07T01:56:04.685Z,51.71
2018-04-07T01:56:26.741Z,51.72
2018-04-07T01:56:49.557Z,51.73
2018-04-07T01:57:11.621Z,51.74
2018-04-07T01:57:34.439Z,51.74
2018-04-07T01:57:56.490Z,51.72
2018-04-07T01:58:18.556Z,51.74
2018-04-07T01:58:40.623Z,51.74
2018-04-07T01:59:03.444Z,51.72
2018-04-07T01:59:26.262Z,51.73
2018-04-07T01:59:48.312Z,51.72
2018-04-07T02:00:11.226Z,51.74
2018-04-07T02:00:33.299Z,51.73
2018-04-07T02:00:55.355Z,51.73
2018-04-07T02:01:17.412Z,51.74
2018-04-07T02:01:39.470Z,51.75
2018-04-07T02:02:01.531Z,51.71
2018-04-07T02:02:24.347Z,51.72
2018-04-07T02:02:46.400Z,51.70
2018-04-07T02:03:08.465Z,51.72
2018-04-07T02:03:30.487Z,51.72
2018-04-07T02:03:52.536Z,51.73
2018-04-07T02:04:15.342Z,51.72
2018-04-07T02:04:37.388Z,51.71
2018-04-07T02:05:00.208Z,51.72
2018-04-07T02:05:23.165Z,51.74
2018-04-07T02:05:45.227Z,51.75
2018-04-07T02:06:07.275Z,51.73
2018-04-07T02:06:29.341Z,51.72
2018-04-07T02:06:51.386Z,51.72
2018-04-07T02:07:13.436Z,51.72
2018-04-07T02:07:36.256Z,51.71
2018-04-07T02:07:58.332Z,51.70
2018-04-07T02:08:20.376Z,51.75
2018-04-07T02:08:42.425Z,51.73
2018-04-07T02:09:05.240Z,51.71
2018-04-07T02:09:27.314Z,51.71
2018-04-07T02:09:49.372Z,51.70
2018-04-07T02:10:11.424Z,51.71
2018-04-07T02:10:33.531Z,51.72
2018-04-07T02:10:56.329Z,51.71
2018-04-07T02:11:18.377Z,51.71
2018-04-07T02:11:41.203Z,51.69
2018-04-07T02:12:03.255Z,51.70
2018-04-07T02:12:25.424Z,51.73
2018-04-07T02:12:47.487Z,51.73
2018-04-07T02:13:09.548Z,51.73
2018-04-07T02:13:31.622Z,51.72
2018-04-07T02:13:53.687Z,51.73
2018-04-07T02:14:15.717Z,51.72
2018-04-07T02:14:37.778Z,51.71
2018-04-07T02:14:59.836Z,51.71
2018-04-07T02:15:21.896Z,51.70
2018-04-07T02:15:44.752Z,51.73
2018-04-07T02:16:06.810Z,51.73
2018-04-07T02:16:28.904Z,51.72
2018-04-07T02:16:50.973Z,51.73
2018-04-07T02:17:13.811Z,51.74
2018-04-07T02:17:36.628Z,51.74
2018-04-07T02:17:58.669Z,51.78
2018-04-07T02:18:21.456Z,51.77
2018-04-07T02:18:43.508Z,51.78
2018-04-07T02:19:06.335Z,51.78
2018-04-07T02:19:28.403Z,51.78
2018-04-07T02:19:50.461Z,51.79
2018-04-07T02:20:12.542Z,51.78
2018-04-07T02:20:34.722Z,51.78
2018-04-07T02:20:57.585Z,51.77
2018-04-07T02:21:19.639Z,51.76
2018-04-07T02:21:41.703Z,51.75
2018-04-07T02:22:04.527Z,51.75
2018-04-07T02:22:27.346Z,51.75
2018-04-07T02:22:49.406Z,51.75
2018-04-07T02:23:11.491Z,51.76
2018-04-07T02:23:34.323Z,51.75
2018-04-07T02:23:56.371Z,51.78
2018-04-07T02:24:18.420Z,51.76
2018-04-07T02:24:40.464Z,51.76
2018-04-07T02:25:02.523Z,51.75
2018-04-07T02:25:24.661Z,51.73
2018-04-07T02:25:46.716Z,51.74
2018-04-07T02:26:08.793Z,51.76
2018-04-07T02:26:30.911Z,51.74
2018-04-07T02:26:52.957Z,51.74
2018-04-07T02:27:14.994Z,51.76
2018-04-07T02:27:37.057Z,51.75
2018-04-07T02:27:59.126Z,51.75
2018-04-07T02:28:21.207Z,51.73
2018-04-07T02:28:43.264Z,51.71
2018-04-07T02:29:05.318Z,51.71
2018-04-07T02:29:27.476Z,51.69
2018-04-07T02:29:49.536Z,51.71
2018-04-07T02:30:12.362Z,51.70
2018-04-07T02:30:35.183Z,51.71
2018-04-07T02:30:57.312Z,51.71
2018-04-07T02:31:20.169Z,51.73
2018-04-07T02:31:42.243Z,51.72
2018-04-07T02:32:04.288Z,51.73
2018-04-07T02:32:27.114Z,51.74
2018-04-07T02:32:49.165Z,51.71
2018-04-07T02:33:11.242Z,51.71
2018-04-07T02:33:33.331Z,51.71
2018-04-07T02:33:55.385Z,51.72
2018-04-07T02:34:18.213Z,51.71
2018-04-07T02:34:40.267Z,51.72
2018-04-07T02:35:02.335Z,51.72
2018-04-07T02:35:24.389Z,51.71
2018-04-07T02:35:47.216Z,51.73
2018-04-07T02:36:10.039Z,51.73
2018-04-07T02:36:32.120Z,51.73
2018-04-07T02:36:54.201Z,51.74
2018-04-07T02:37:16.265Z,51.72
2018-04-07T02:37:38.353Z,51.71
2018-04-07T02:38:00.417Z,51.72
2018-04-07T02:38:22.488Z,51.72
2018-04-07T02:38:44.547Z,51.71
2018-04-07T02:39:06.658Z,51.74
2018-04-07T02:39:28.733Z,51.73
2018-04-07T02:39:50.796Z,51.72
2018-04-07T02:40:12.877Z,51.72
2018-04-07T02:40:34.953Z,51.72
2018-04-07T02:40:57.064Z,51.72
2018-04-07T02:41:19.133Z,51.75
2018-04-07T02:41:41.210Z,51.73
2018-04-07T02:42:04.024Z,51.74
2018-04-07T02:42:26.073Z,51.73
2018-04-07T02:42:48.896Z,51.73
2018-04-07T02:43:11.751Z,51.73
2018-04-07T02:43:33.830Z,51.72
2018-04-07T02:43:55.885Z,51.74
2018-04-07T02:44:17.949Z,51.72
2018-04-07T02:44:40.036Z,51.72
2018-04-07T02:45:02.096Z,51.71
2018-04-07T02:45:24.148Z,51.69
2018-04-07T02:45:46.967Z,51.73
2018-04-07T02:46:09.813Z,51.72
2018-04-07T02:46:32.647Z,51.74
2018-04-07T02:46:55.470Z,51.71
2018-04-07T02:47:17.529Z,51.72
2018-04-07T02:47:39.600Z,51.71
2018-04-07T02:48:01.671Z,51.70
2018-04-07T02:48:23.737Z,51.71
2018-04-07T02:48:45.792Z,51.72
2018-04-07T02:49:07.922Z,51.73
2018-04-07T02:49:29.989Z,51.71
2018-04-07T02:49:52.046Z,51.71
2018-04-07T02:50:14.107Z,51.70
2018-04-07T02:50:36.155Z,51.71
2018-04-07T02:50:58.981Z,51.72
2018-04-07T02:51:21.037Z,51.72
2018-04-07T02:51:43.106Z,51.70
2018-04-07T02:52:05.194Z,51.71
2018-04-07T02:52:27.244Z,51.71
2018-04-07T02:52:49.307Z,51.73
2018-04-07T02:53:11.447Z,51.73
2018-04-07T02:53:33.504Z,51.72
2018-04-07T02:53:55.562Z,51.72
2018-04-07T02:54:17.630Z,51.71
2018-04-07T02:54:39.684Z,51.72
2018-04-07T02:55:01.733Z,51.73
2018-04-07T02:55:23.798Z,51.73
2018-04-07T02:55:46.632Z,51.72
2018-04-07T02:56:09.476Z,51.73
2018-04-07T02:56:31.546Z,51.72
2018-04-07T02:56:53.612Z,51.70
2018-04-07T02:57:15.698Z,51.73
2018-04-07T02:57:37.763Z,51.73
2018-04-07T02:57:59.824Z,51.71
2018-04-07T02:58:21.880Z,51.71
2018-04-07T02:58:44.721Z,51.71
2018-04-07T02:59:07.550Z,51.70
2018-04-07T02:59:30.377Z,51.72
2018-04-07T02:59:53.315Z,51.72
2018-04-07T03:00:16.160Z,51.70
2018-04-07T03:00:39.009Z,51.70
2018-04-07T03:01:01.087Z,51.68
2018-04-07T03:01:23.145Z,51.69
2018-04-07T03:01:45.198Z,51.68
2018-04-07T03:02:07.254Z,51.68
2018-04-07T03:02:30.101Z,51.68
2018-04-07T03:02:52.166Z,51.70
2018-04-07T03:03:14.224Z,51.70
2018-04-07T03:03:37.042Z,51.70
2018-04-07T03:03:59.106Z,51.70
2018-04-07T03:04:21.163Z,51.70
2018-04-07T03:04:43.222Z,51.71
2018-04-07T03:05:06.049Z,51.67
2018-04-07T03:05:28.871Z,51.70
2018-04-07T03:05:50.926Z,51.68
2018-04-07T03:06:12.978Z,51.68
2018-04-07T03:06:35.138Z,51.69
2018-04-07T03:06:57.965Z,51.68
2018-04-07T03:07:20.024Z,51.69
2018-04-07T03:07:42.114Z,51.68
2018-04-07T03:08:04.989Z,51.68
2018-04-07T03:08:27.036Z,51.70
2018-04-07T03:08:49.096Z,51.72
2018-04-07T03:09:11.165Z,51.73
2018-04-07T03:09:33.226Z,51.71
2018-04-07T03:09:55.290Z,51.72
2018-04-07T03:10:17.426Z,51.68
2018-04-07T03:10:39.502Z,51.69
2018-04-07T03:11:01.574Z,51.72
2018-04-07T03:11:23.745Z,51.70
2018-04-07T03:11:45.810Z,51.67
2018-04-07T03:12:07.864Z,51.70
2018-04-07T03:12:29.919Z,51.70
2018-04-07T03:12:51.970Z,51.71
2018-04-07T03:13:14.802Z,51.72
2018-04-07T03:13:37.632Z,51.70
2018-04-07T03:14:00.452Z,51.72
2018-04-07T03:14:22.522Z,51.73
2018-04-07T03:14:44.573Z,51.72
2018-04-07T03:15:06.635Z,51.68
2018-04-07T03:15:29.511Z,51.68
2018-04-07T03:15:51.576Z,51.69
2018-04-07T03:16:13.635Z,51.70
2018-04-07T03:16:35.707Z,51.70
2018-04-07T03:16:57.776Z,51.71
2018-04-07T03:17:19.846Z,51.69
2018-04-07T03:17:42.674Z,51.68
2018-04-07T03:18:04.753Z,51.68
2018-04-07T03:18:26.801Z,51.68
2018-04-07T03:18:48.865Z,51.70
2018-04-07T03:19:10.971Z,51.67
2018-04-07T03:19:33.033Z,51.66
2018-04-07T03:19:55.106Z,51.67
2018-04-07T03:20:17.357Z,51.66
2018-04-07T03:20:39.430Z,51.65
2018-04-07T03:21:02.258Z,51.66
2018-04-07T03:21:24.313Z,51.66
2018-04-07T03:21:46.388Z,51.67
2018-04-07T03:22:08.443Z,51.66
2018-04-07T03:22:30.511Z,51.67
2018-04-07T03:22:52.570Z,51.67
2018-04-07T03:23:14.649Z,51.67
2018-04-07T03:23:36.715Z,51.68
2018-04-07T03:23:58.781Z,51.67
2018-04-07T03:24:20.837Z,51.66
2018-04-07T03:24:42.895Z,51.67
2018-04-07T03:25:04.993Z,51.71
2018-04-07T03:25:27.052Z,51.68
2018-04-07T03:25:49.116Z,51.68
2018-04-07T03:26:11.184Z,51.71
2018-04-07T03:26:33.259Z,51.69
2018-04-07T03:26:55.327Z,51.69
2018-04-07T03:27:17.380Z,51.67
2018-04-07T03:27:39.448Z,51.66
2018-04-07T03:28:03.014Z,51.67
2018-04-07T03:28:25.129Z,51.68
2018-04-07T03:28:47.356Z,51.67
2018-04-07T03:29:10.281Z,51.67
2018-04-07T03:29:32.340Z,51.68
2018-04-07T03:29:54.383Z,51.66
2018-04-07T03:30:16.451Z,51.67
2018-04-07T03:30:39.299Z,51.68
2018-04-07T03:31:02.132Z,51.68
2018-04-07T03:31:24.967Z,51.69
2018-04-07T03:31:47.757Z,51.67
2018-04-07T03:32:09.817Z,51.69
2018-04-07T03:32:32.649Z,51.70
2018-04-07T03:32:55.473Z,51.70
2018-04-07T03:33:17.533Z,51.71
2018-04-07T03:33:39.616Z,51.69
2018-04-07T03:34:01.656Z,51.67
2018-04-07T03:34:23.708Z,51.65
2018-04-07T03:34:45.772Z,51.65
2018-04-07T03:35:08.605Z,51.66
2018-04-07T03:35:31.425Z,51.66
2018-04-07T03:35:53.570Z,51.68
2018-04-07T03:36:16.393Z,51.67
2018-04-07T03:36:39.210Z,51.65
2018-04-07T03:37:01.280Z,51.64
2018-04-07T03:37:23.340Z,51.64
2018-04-07T03:37:45.393Z,51.64
2018-04-07T03:38:08.205Z,51.64
2018-04-07T03:38:30.265Z,51.64
2018-04-07T03:38:52.336Z,51.66
2018-04-07T03:39:14.397Z,51.66
2018-04-07T03:39:36.461Z,51.65
2018-04-07T03:39:58.518Z,51.67
2018-04-07T03:40:21.342Z,51.67
2018-04-07T03:40:44.147Z,51.69
2018-04-07T03:41:06.211Z,51.68
2018-04-07T03:41:28.270Z,51.65
2018-04-07T03:41:50.317Z,51.66
2018-04-07T03:42:12.369Z,51.67
2018-04-07T03:42:34.429Z,51.68
2018-04-07T03:42:56.491Z,51.69
2018-04-07T03:43:18.553Z,51.68
2018-04-07T03:43:40.654Z,51.68
2018-04-07T03:44:02.738Z,51.67
2018-04-07T03:44:25.619Z,51.68
2018-04-07T03:44:47.678Z,51.68
2018-04-07T03:45:10.515Z,51.67
2018-04-07T03:45:33.343Z,51.65
2018-04-07T03:45:55.402Z,51.62
2018-04-07T03:46:17.457Z,51.63
2018-04-07T03:46:39.504Z,51.63
2018-04-07T03:47:02.341Z,51.63
2018-04-07T03:47:24.349Z,51.62
2018-04-07T03:47:46.428Z,51.63
2018-04-07T03:48:08.478Z,51.65
2018-04-07T03:48:30.539Z,51.66
2018-04-07T03:48:52.691Z,51.65
2018-04-07T03:49:14.791Z,51.65
2018-04-07T03:49:36.842Z,51.65
2018-04-07T03:49:58.914Z,51.65
2018-04-07T03:50:20.980Z,51.65
2018-04-07T03:50:43.101Z,51.63
2018-04-07T03:51:05.147Z,51.63
2018-04-07T03:51:27.977Z,51.64
2018-04-07T03:51:50.805Z,51.67
2018-04-07T03:52:13.723Z,51.65
2018-04-07T03:52:35.785Z,51.62
2018-04-07T03:52:57.842Z,51.62
2018-04-07T03:53:19.904Z,51.62
2018-04-07T03:53:42.748Z,51.61
2018-04-07T03:54:04.922Z,51.60
2018-04-07T03:54:27.009Z,51.59
2018-04-07T03:54:49.062Z,51.61
2018-04-07T03:55:11.134Z,51.60
2018-04-07T03:55:33.199Z,51.61
2018-04-07T03:55:55.286Z,51.59
2018-04-07T03:56:17.350Z,51.60
2018-04-07T03:56:40.190Z,51.61
2018-04-07T03:57:03.081Z,51.60
2018-04-07T03:57:25.139Z,51.59
2018-04-07T03:57:47.964Z,51.62
2018-04-07T03:58:10.004Z,51.64
2018-04-07T03:58:32.823Z,51.66
2018-04-07T03:58:54.871Z,51.65
2018-04-07T03:59:17.006Z,51.65
2018-04-07T03:59:39.115Z,51.68
2018-04-07T04:00:01.179Z,51.68
2018-04-07T04:00:23.342Z,51.69
2018-04-07T04:00:45.426Z,51.66
2018-04-07T04:01:07.477Z,51.66
2018-04-07T04:01:29.587Z,51.68
2018-04-07T04:01:51.648Z,51.65
2018-04-07T04:02:13.700Z,51.62
2018-04-07T04:02:35.786Z,51.62
2018-04-07T04:02:57.844Z,51.64
2018-04-07T04:03:20.673Z,51.64
2018-04-07T04:03:43.497Z,51.58
2018-04-07T04:04:06.341Z,51.61
2018-04-07T04:04:28.394Z,51.61
2018-04-07T04:04:50.502Z,51.60
2018-04-07T04:05:12.551Z,51.63
2018-04-07T04:05:34.609Z,51.63
2018-04-07T04:05:56.676Z,51.65
2018-04-07T04:06:18.748Z,51.65
2018-04-07T04:06:41.581Z,51.68
2018-04-07T04:07:03.632Z,51.66
2018-04-07T04:07:25.697Z,51.64
2018-04-07T04:07:47.762Z,51.64
2018-04-07T04:08:09.822Z,51.64
2018-04-07T04:08:31.877Z,51.63
2018-04-07T04:08:54.706Z,51.63
2018-04-07T04:09:17.534Z,51.64
2018-04-07T04:09:39.593Z,51.62
2018-04-07T04:10:01.706Z,51.63
2018-04-07T04:10:23.773Z,51.63
2018-04-07T04:10:45.829Z,51.63
2018-04-07T04:11:07.893Z,51.62
2018-04-07T04:11:30.722Z,51.61
2018-04-07T04:11:52.858Z,51.61
2018-04-07T04:12:14.908Z,51.61
2018-04-07T04:12:37.748Z,51.61
2018-04-07T04:13:00.570Z,51.62
2018-04-07T04:13:23.398Z,51.63
2018-04-07T04:13:45.461Z,51.62
2018-04-07T04:14:07.585Z,51.62
2018-04-07T04:14:29.652Z,51.63
2018-04-07T04:14:51.702Z,51.62
2018-04-07T04:15:13.798Z,51.62
2018-04-07T04:15:36.635Z,51.58
2018-04-07T04:15:59.460Z,51.61
2018-04-07T04:16:21.517Z,51.62
2018-04-07T04:16:43.579Z,51.61
2018-04-07T04:17:05.646Z,51.60
2018-04-07T04:17:27.712Z,51.60
2018-04-07T04:17:49.769Z,51.60
2018-04-07T04:18:11.858Z,51.59
2018-04-07T04:18:33.943Z,51.57
2018-04-07T04:18:56.006Z,51.57
2018-04-07T04:19:18.086Z,51.58
2018-04-07T04:19:40.162Z,51.59
2018-04-07T04:20:02.226Z,51.59
2018-04-07T04:20:24.318Z,51.61
2018-04-07T04:20:46.381Z,51.62
2018-04-07T04:21:08.438Z,51.64
2018-04-07T04:21:30.500Z,51.61
2018-04-07T04:21:52.555Z,51.61
2018-04-07T04:22:15.383Z,51.64
2018-04-07T04:22:38.206Z,51.63
2018-04-07T04:23:00.273Z,51.60
2018-04-07T04:23:22.382Z,51.59
2018-04-07T04:23:45.177Z,51.58
2018-04-07T04:24:07.321Z,51.57
2018-04-07T04:24:29.390Z,51.59
2018-04-07T04:24:51.433Z,51.58
2018-04-07T04:25:13.527Z,51.58
2018-04-07T04:25:35.624Z,51.57
2018-04-07T04:25:57.679Z,51.57
2018-04-07T04:26:19.737Z,51.56
2018-04-07T04:26:41.822Z,51.59
2018-04-07T04:27:04.656Z,51.57
2018-04-07T04:27:27.476Z,51.57
2018-04-07T04:27:49.649Z,51.57
2018-04-07T04:28:11.700Z,51.58
2018-04-07T04:28:33.748Z,51.58
2018-04-07T04:28:56.561Z,51.62
2018-04-07T04:29:18.612Z,51.60
2018-04-07T04:29:40.671Z,51.57
2018-04-07T04:30:02.770Z,51.54
2018-04-07T04:30:24.812Z,51.52
2018-04-07T04:30:46.897Z,51.53
2018-04-07T04:31:08.967Z,51.54
2018-04-07T04:31:31.058Z,51.56
2018-04-07T04:31:53.145Z,51.56
2018-04-07T04:32:15.201Z,51.54
2018-04-07T04:32:37.378Z,51.55
2018-04-07T04:32:59.446Z,51.56
2018-04-07T04:33:21.525Z,51.57
2018-04-07T04:33:43.767Z,51.58
2018-04-07T04:34:05.828Z,51.56
2018-04-07T04:34:28.682Z,51.57
2018-04-07T04:34:50.743Z,51.58
2018-04-07T04:35:13.007Z,51.61
2018-04-07T04:35:35.833Z,51.59
2018-04-07T04:35:57.917Z,51.60
2018-04-07T04:36:20.732Z,51.62
2018-04-07T04:36:42.787Z,51.59
2018-04-07T04:37:04.844Z,51.60
2018-04-07T04:37:27.660Z,51.60
2018-04-07T04:37:49.721Z,51.57
2018-04-07T04:38:11.774Z,51.59
2018-04-07T04:38:33.834Z,51.58
2018-04-07T04:38:55.905Z,51.56
2018-04-07T04:39:17.973Z,51.56
2018-04-07T04:39:40.066Z,51.54
2018-04-07T04:40:02.127Z,51.55
2018-04-07T04:40:24.181Z,51.56
2018-04-07T04:40:46.243Z,51.54
2018-04-07T04:41:08.324Z,51.56
2018-04-07T04:41:30.378Z,51.58
2018-04-07T04:41:52.434Z,51.56
2018-04-07T04:42:14.480Z,51.54
2018-04-07T04:42:36.561Z,51.54
2018-04-07T04:42:58.610Z,51.53
2018-04-07T04:43:20.669Z,51.52
2018-04-07T04:43:42.711Z,51.52
2018-04-07T04:44:04.879Z,51.52
2018-04-07T04:44:27.711Z,51.54
2018-04-07T04:44:50.538Z,51.54
2018-04-07T04:45:12.600Z,51.53
2018-04-07T04:45:34.654Z,51.53
2018-04-07T04:45:56.739Z,51.53
2018-04-07T04:46:18.801Z,51.50
2018-04-07T04:46:41.016Z,51.53
2018-04-07T04:47:03.074Z,51.53
2018-04-07T04:47:25.143Z,51.55
2018-04-07T04:47:47.964Z,51.56
2018-04-07T04:48:10.018Z,51.53
2018-04-07T04:48:32.085Z,51.53
2018-04-07T04:48:54.176Z,51.52
2018-04-07T04:49:16.258Z,51.49
2018-04-07T04:49:38.318Z,51.51
2018-04-07T04:50:00.383Z,51.51
2018-04-07T04:50:22.458Z,51.51
2018-04-07T04:50:44.514Z,51.51
2018-04-07T04:51:06.577Z,51.49
2018-04-07T04:51:28.666Z,51.51
2018-04-07T04:51:50.773Z,51.53
2018-04-07T04:52:12.830Z,51.53
2018-04-07T04:52:35.655Z,51.52
2018-04-07T04:52:58.490Z,51.50
2018-04-07T04:53:21.313Z,51.51
2018-04-07T04:53:43.380Z,51.51
2018-04-07T04:54:05.438Z,51.52
2018-04-07T04:54:27.508Z,51.49
2018-04-07T04:54:49.570Z,51.48
2018-04-07T04:55:11.626Z,51.51
2018-04-07T04:55:33.686Z,51.48
2018-04-07T04:55:55.744Z,51.50
2018-04-07T04:56:18.574Z,51.50
2018-04-07T04:56:40.676Z,51.52
2018-04-07T04:57:02.738Z,51.53
2018-04-07T04:57:24.815Z,51.50
2018-04-07T04:57:46.865Z,51.50
2018-04-07T04:58:09.692Z,51.51
2018-04-07T04:58:32.507Z,51.50
2018-04-07T04:58:54.548Z,51.51
2018-04-07T04:59:16.615Z,51.50
2018-04-07T04:59:39.435Z,51.50
2018-04-07T05:00:01.488Z,51.52
2018-04-07T05:00:23.548Z,51.51
2018-04-07T05:00:45.630Z,51.52
2018-04-07T05:01:07.698Z,51.51
2018-04-07T05:01:29.759Z,51.48
2018-04-07T05:01:51.837Z,51.48
2018-04-07T05:02:13.870Z,51.52
2018-04-07T05:02:35.916Z,51.53
2018-04-07T05:02:57.964Z,51.51
2018-04-07T05:03:20.018Z,51.51
2018-04-07T05:03:42.845Z,51.52
2018-04-07T05:04:04.893Z,51.52
2018-04-07T05:04:26.982Z,51.49
2018-04-07T05:04:49.058Z,51.53
2018-04-07T05:05:11.850Z,51.51
2018-04-07T05:05:33.917Z,51.52
2018-04-07T05:05:55.973Z,51.51
2018-04-07T05:06:18.030Z,51.52
2018-04-07T05:06:40.845Z,51.52
2018-04-07T05:07:03.064Z,51.50
2018-04-07T05:07:25.147Z,51.54
2018-04-07T05:07:47.212Z,51.53
2018-04-07T05:08:09.339Z,51.51
2018-04-07T05:08:31.418Z,51.48
2018-04-07T05:08:53.482Z,51.47
2018-04-07T05:09:16.278Z,51.46
2018-04-07T05:09:39.074Z,51.47
2018-04-07T05:10:01.142Z,51.45
2018-04-07T05:10:23.209Z,51.46
2018-04-07T05:10:45.305Z,51.47
2018-04-07T05:11:08.129Z,51.46
2018-04-07T05:11:30.960Z,51.44
2018-04-07T05:11:53.026Z,51.47
2018-04-07T05:12:15.117Z,51.48
2018-04-07T05:12:37.173Z,51.49
2018-04-07T05:12:59.245Z,51.47
2018-04-07T05:13:22.080Z,51.48
2018-04-07T05:13:44.903Z,51.48
2018-04-07T05:14:06.997Z,51.49
2018-04-07T05:14:29.065Z,51.48
2018-04-07T05:14:51.194Z,51.48
2018-04-07T05:15:13.250Z,51.47
2018-04-07T05:15:35.312Z,51.47
2018-04-07T05:15:58.128Z,51.50
2018-04-07T05:16:20.177Z,51.51
2018-04-07T05:16:42.233Z,51.50
2018-04-07T05:17:04.285Z,51.48
2018-04-07T05:17:27.362Z,51.47
2018-04-07T05:17:49.420Z,51.48
2018-04-07T05:18:11.464Z,51.49
2018-04-07T05:18:34.288Z,51.49
2018-04-07T05:18:56.351Z,51.45
2018-04-07T05:19:18.399Z,51.46
2018-04-07T05:19:40.454Z,51.51
2018-04-07T05:20:03.379Z,51.48
2018-04-07T05:20:26.212Z,51.48
2018-04-07T05:20:48.290Z,51.49
2018-04-07T05:21:10.351Z,51.48
2018-04-07T05:21:33.182Z,51.47
2018-04-07T05:21:55.260Z,51.47
2018-04-07T05:22:17.340Z,51.48
2018-04-07T05:22:39.439Z,51.47
2018-04-07T05:23:02.257Z,51.46
2018-04-07T05:23:24.313Z,51.47
2018-04-07T05:23:46.372Z,51.48
2018-04-07T05:24:08.427Z,51.47
2018-04-07T05:24:31.256Z,51.46
2018-04-07T05:24:53.314Z,51.44
2018-04-07T05:25:16.124Z,51.45
2018-04-07T05:25:38.948Z,51.44
2018-04-07T05:26:01.774Z,51.44
2018-04-07T05:26:23.831Z,51.44
2018-04-07T05:26:45.896Z,51.44
2018-04-07T05:27:07.953Z,51.44
2018-04-07T05:27:30.817Z,51.45
2018-04-07T05:27:52.938Z,51.45
2018-04-07T05:28:14.989Z,51.48
2018-04-07T05:28:37.042Z,51.47
2018-04-07T05:28:59.114Z,51.47
2018-04-07T05:29:21.176Z,51.48
2018-04-07T05:29:43.994Z,51.46
2018-04-07T05:30:06.939Z,51.46
2018-04-07T05:30:29.761Z,51.47